Aviation Digital Data Service (ADDS)

Output produced by METARs form (1629 UTC 04 August 2021)
found at http://www.aviationweather.gov/metar/data/
 
NSFA 041600Z 19004KT 9999 FEW030 23/22 Q1012
NSFA 041500Z 08003KT 9999 FEW030 24/22 Q1012
NSFA 041400Z 16005KT 9999 FEW030 24/22 Q1012
NSFA 041300Z 05003KT 9999 FEW030 24/22 Q1013
NSFA 041200Z VRB03KT 9999 FEW030 24/22 Q1013
NSFA 041100Z 00000KT 9999 FEW030 24/23 Q1013
NSFA 041000Z 08003KT 9999 FEW023 24/23 Q1014
NSFA 040900Z 08004KT 9999 FEW023 24/23 Q1014
NSFA 040800Z 18003KT 9999 FEW022 SCT180 24/23 Q1014
NSFA 040700Z 11005KT 9999 FEW020 BKN160 25/23 Q1013
NSFA 040600Z 10005KT 9999 FEW020 SCT046 BKN160 26/23 Q1012
NSFA 040500Z 18006KT 9999 FEW022 SCT048 BKN170 26/23 Q1012
NSFA 040400Z 11005KT 9999 FEW022 SCT048 BKN170 27/23 Q1011
NSFA 040300Z VRB04KT 9999 FEW019CB FEW020 BKN046 28/23 Q1011 RMK CB TO W
NSFA 040200Z 36004KT 9999 FEW022 SCT048 BKN170 29/24 Q1011
NSFA 040100Z 12004KT 9999 FEW022 SCT048 BKN170 30/23 Q1012
NSFA 040000Z 12004KT 9999 FEW018CB BKN020 29/24 Q1013 RMK CB TO NNW
NSFA 032300Z VRB03KT 9999 SCT020 BKN120 28/24 Q1014
NSFA 032200Z VRB03KT 9999 SCT022 BKN120 28/25 Q1014
NSFA 032100Z VRB03KT 9999 BKN022 28/24 Q1014
NSFA 032000Z 12005KT 9999 FEW022 BKN120 27/24 Q1014
NSFA 031900Z 00000KT 9999 SCT024 25/24 Q1013
NSFA 031800Z 15004KT 9999 FEW028 23/22 Q1012
NSFA 031700Z 16004KT 9999 FEW030 23/22 Q1012
TAF NSFA 041111Z 0412/0512 10006KT 9999 FEW023